sensor_id;sensor_type;location;lat;lon;timestamp;temperature;humidity
15455;DHT22;21057;51.024;7.540;2023-03-11T00:01:06;1.20;99.90
15455;DHT22;21057;51.024;7.540;2023-03-11T00:03:36;1.10;99.90
15455;DHT22;21057;51.024;7.540;2023-03-11T00:06:21;1.20;99.90
15455;DHT22;21057;51.024;7.540;2023-03-11T00:08:48;1.40;99.90
15455;DHT22;21057;51.024;7.540;2023-03-11T00:11:17;1.40;99.90
15455;DHT22;21057;51.024;7.540;2023-03-11T00:13:44;1.50;99.90
15455;DHT22;21057;51.024;7.540;2023-03-11T00:16:11;1.70;99.90
15455;DHT22;21057;51.024;7.540;2023-03-11T00:18:37;1.70;99.90
15455;DHT22;21057;51.024;7.540;2023-03-11T00:21:04;1.90;99.90
15455;DHT22;21057;51.024;7.540;2023-03-11T00:23:33;1.80;99.90
15455;DHT22;21057;51.024;7.540;2023-03-11T00:26:00;1.80;99.90
15455;DHT22;21057;51.024;7.540;2023-03-11T00:28:27;1.50;99.90
15455;DHT22;21057;51.024;7.540;2023-03-11T00:30:54;1.60;99.90
15455;DHT22;21057;51.024;7.540;2023-03-11T00:33:22;1.50;99.90
15455;DHT22;21057;51.024;7.540;2023-03-11T00:35:49;1.40;99.90
15455;DHT22;21057;51.024;7.540;2023-03-11T00:38:16;1.50;99.90
15455;DHT22;21057;51.024;7.540;2023-03-11T00:40:46;1.50;99.90
15455;DHT22;21057;51.024;7.540;2023-03-11T00:43:18;1.40;99.90
15455;DHT22;21057;51.024;7.540;2023-03-11T00:45:51;1.30;99.90
15455;DHT22;21057;51.024;7.540;2023-03-11T00:48:27;1.40;99.90
15455;DHT22;21057;51.024;7.540;2023-03-11T00:50:55;1.70;99.90
15455;DHT22;21057;51.024;7.540;2023-03-11T00:53:23;1.60;99.90
15455;DHT22;21057;51.024;7.540;2023-03-11T00:55:51;1.50;99.90
15455;DHT22;21057;51.024;7.540;2023-03-11T00:58:20;1.60;99.90
15455;DHT22;21057;51.024;7.540;2023-03-11T01:00:47;1.40;99.90
15455;DHT22;21057;51.024;7.540;2023-03-11T01:03:14;1.50;99.90
15455;DHT22;21057;51.024;7.540;2023-03-11T01:05:43;1.50;99.90
15455;DHT22;21057;51.024;7.540;2023-03-11T01:08:13;1.50;99.90
15455;DHT22;21057;51.024;7.540;2023-03-11T01:10:39;1.70;99.90
15455;DHT22;21057;51.024;7.540;2023-03-11T01:13:13;1.60;99.90
15455;DHT22;21057;51.024;7.540;2023-03-11T01:15:40;1.60;99.90
15455;DHT22;21057;51.024;7.540;2023-03-11T01:18:07;1.50;99.90
15455;DHT22;21057;51.024;7.540;2023-03-11T01:20:36;1.60;99.90
15455;DHT22;21057;51.024;7.540;2023-03-11T01:23:03;1.60;99.90
15455;DHT22;21057;51.024;7.540;2023-03-11T01:25:34;1.50;99.90
15455;DHT22;21057;51.024;7.540;2023-03-11T01:28:01;1.40;99.90
15455;DHT22;21057;51.024;7.540;2023-03-11T01:30:29;1.40;99.90
15455;DHT22;21057;51.024;7.540;2023-03-11T01:32:56;1.50;99.90
15455;DHT22;21057;51.024;7.540;2023-03-11T01:35:34;1.40;99.90
15455;DHT22;21057;51.024;7.540;2023-03-11T01:38:01;1.30;99.90
15455;DHT22;21057;51.024;7.540;2023-03-11T01:40:30;1.30;99.90
15455;DHT22;21057;51.024;7.540;2023-03-11T01:42:59;1.50;99.90
15455;DHT22;21057;51.024;7.540;2023-03-11T01:45:35;1.70;99.90
15455;DHT22;21057;51.024;7.540;2023-03-11T01:48:03;1.90;99.90
15455;DHT22;21057;51.024;7.540;2023-03-11T01:50:33;1.80;99.90
15455;DHT22;21057;51.024;7.540;2023-03-11T01:53:01;1.90;99.90
15455;DHT22;21057;51.024;7.540;2023-03-11T01:55:33;1.70;99.90
15455;DHT22;21057;51.024;7.540;2023-03-11T01:58:02;1.50;99.90
15455;DHT22;21057;51.024;7.540;2023-03-11T02:00:36;1.50;99.90
15455;DHT22;21057;51.024;7.540;2023-03-11T02:03:08;1.30;99.90
15455;DHT22;21057;51.024;7.540;2023-03-11T02:05:37;1.50;99.90
15455;DHT22;21057;51.024;7.540;2023-03-11T02:08:05;1.50;99.90
15455;DHT22;21057;51.024;7.540;2023-03-11T02:10:32;1.70;99.90
15455;DHT22;21057;51.024;7.540;2023-03-11T02:13:01;1.50;99.90
15455;DHT22;21057;51.024;7.540;2023-03-11T02:15:29;1.50;99.90
15455;DHT22;21057;51.024;7.540;2023-03-11T02:17:58;1.70;99.90
15455;DHT22;21057;51.024;7.540;2023-03-11T02:20:35;1.50;99.90
15455;DHT22;21057;51.024;7.540;2023-03-11T02:23:06;1.50;99.90
15455;DHT22;21057;51.024;7.540;2023-03-11T02:25:36;1.70;99.90
15455;DHT22;21057;51.024;7.540;2023-03-11T02:28:08;1.60;99.90
15455;DHT22;21057;51.024;7.540;2023-03-11T02:30:36;1.40;99.90
15455;DHT22;21057;51.024;7.540;2023-03-11T02:33:14;1.60;99.90
15455;DHT22;21057;51.024;7.540;2023-03-11T02:35:42;1.80;99.90
15455;DHT22;21057;51.024;7.540;2023-03-11T02:38:09;1.90;99.90
15455;DHT22;21057;51.024;7.540;2023-03-11T02:40:54;2.00;99.90
15455;DHT22;21057;51.024;7.540;2023-03-11T02:43:41;2.10;99.90
15455;DHT22;21057;51.024;7.540;2023-03-11T02:46:17;2.10;99.90
15455;DHT22;21057;51.024;7.540;2023-03-11T02:48:45;2.30;99.90
15455;DHT22;21057;51.024;7.540;2023-03-11T02:51:13;2.30;99.90
15455;DHT22;21057;51.024;7.540;2023-03-11T02:53:44;2.40;99.90
15455;DHT22;21057;51.024;7.540;2023-03-11T02:56:12;2.30;99.90
15455;DHT22;21057;51.024;7.540;2023-03-11T02:58:42;2.40;99.90
15455;DHT22;21057;51.024;7.540;2023-03-11T03:01:09;2.40;99.90
15455;DHT22;21057;51.024;7.540;2023-03-11T03:03:36;2.00;99.90
15455;DHT22;21057;51.024;7.540;2023-03-11T03:06:04;1.90;99.90
15455;DHT22;21057;51.024;7.540;2023-03-11T03:08:32;1.80;99.90
15455;DHT22;21057;51.024;7.540;2023-03-11T03:10:59;1.80;99.90
15455;DHT22;21057;51.024;7.540;2023-03-11T03:13:32;1.80;99.90
15455;DHT22;21057;51.024;7.540;2023-03-11T03:16:02;1.60;99.90
15455;DHT22;21057;51.024;7.540;2023-03-11T03:18:29;1.40;99.90
15455;DHT22;21057;51.024;7.540;2023-03-11T03:20:56;1.50;99.90
15455;DHT22;21057;51.024;7.540;2023-03-11T03:23:23;1.80;99.90
15455;DHT22;21057;51.024;7.540;2023-03-11T03:25:51;1.90;99.90
15455;DHT22;21057;51.024;7.540;2023-03-11T03:28:18;1.90;99.90
15455;DHT22;21057;51.024;7.540;2023-03-11T03:30:47;2.10;99.90
15455;DHT22;21057;51.024;7.540;2023-03-11T03:33:15;2.00;99.90
15455;DHT22;21057;51.024;7.540;2023-03-11T03:35:43;2.10;99.90
15455;DHT22;21057;51.024;7.540;2023-03-11T03:38:26;2.20;99.90
15455;DHT22;21057;51.024;7.540;2023-03-11T03:40:55;2.20;99.90
15455;DHT22;21057;51.024;7.540;2023-03-11T03:43:22;1.80;99.90
15455;DHT22;21057;51.024;7.540;2023-03-11T03:45:57;1.70;99.90
15455;DHT22;21057;51.024;7.540;2023-03-11T03:48:25;1.90;99.90
15455;DHT22;21057;51.024;7.540;2023-03-11T03:50:54;1.80;99.90
15455;DHT22;21057;51.024;7.540;2023-03-11T03:53:20;1.80;99.90
15455;DHT22;21057;51.024;7.540;2023-03-11T03:55:47;1.80;99.90
15455;DHT22;21057;51.024;7.540;2023-03-11T03:58:29;1.80;99.90
15455;DHT22;21057;51.024;7.540;2023-03-11T04:00:56;1.80;99.90
15455;DHT22;21057;51.024;7.540;2023-03-11T04:03:25;1.50;99.90
15455;DHT22;21057;51.024;7.540;2023-03-11T04:05:53;1.60;99.90
15455;DHT22;21057;51.024;7.540;2023-03-11T04:08:20;1.60;99.90
15455;DHT22;21057;51.024;7.540;2023-03-11T04:11:03;1.50;99.90
15455;DHT22;21057;51.024;7.540;2023-03-11T04:13:29;1.20;99.90
15455;DHT22;21057;51.024;7.540;2023-03-11T04:15:56;1.20;99.90
15455;DHT22;21057;51.024;7.540;2023-03-11T04:18:25;1.30;99.90
15455;DHT22;21057;51.024;7.540;2023-03-11T04:20:51;1.20;99.90
15455;DHT22;21057;51.024;7.540;2023-03-11T04:23:19;1.30;99.90
15455;DHT22;21057;51.024;7.540;2023-03-11T04:25:46;1.30;99.90
15455;DHT22;21057;51.024;7.540;2023-03-11T04:28:14;1.40;99.90
15455;DHT22;21057;51.024;7.540;2023-03-11T04:30:41;1.10;99.90
15455;DHT22;21057;51.024;7.540;2023-03-11T04:33:13;1.10;99.90
15455;DHT22;21057;51.024;7.540;2023-03-11T04:35:41;1.10;99.90
15455;DHT22;21057;51.024;7.540;2023-03-11T04:38:08;1.20;99.90
15455;DHT22;21057;51.024;7.540;2023-03-11T04:40:35;1.10;99.90
15455;DHT22;21057;51.024;7.540;2023-03-11T04:43:08;1.00;99.90
15455;DHT22;21057;51.024;7.540;2023-03-11T04:45:37;1.10;99.90
15455;DHT22;21057;51.024;7.540;2023-03-11T04:48:04;1.10;99.90
15455;DHT22;21057;51.024;7.540;2023-03-11T04:50:33;1.20;99.90
15455;DHT22;21057;51.024;7.540;2023-03-11T04:53:02;1.30;99.90
15455;DHT22;21057;51.024;7.540;2023-03-11T04:55:28;1.30;99.90
15455;DHT22;21057;51.024;7.540;2023-03-11T04:57:55;1.20;99.90
15455;DHT22;21057;51.024;7.540;2023-03-11T05:00:24;1.30;99.90
15455;DHT22;21057;51.024;7.540;2023-03-11T05:02:51;1.40;99.90
15455;DHT22;21057;51.024;7.540;2023-03-11T05:05:18;1.50;99.90
15455;DHT22;21057;51.024;7.540;2023-03-11T05:07:45;1.50;99.90
15455;DHT22;21057;51.024;7.540;2023-03-11T05:10:13;1.40;99.90
15455;DHT22;21057;51.024;7.540;2023-03-11T05:12:46;1.30;99.90
15455;DHT22;21057;51.024;7.540;2023-03-11T05:15:13;1.50;99.90
15455;DHT22;21057;51.024;7.540;2023-03-11T05:17:40;1.30;99.90
15455;DHT22;21057;51.024;7.540;2023-03-11T05:20:09;1.30;99.90
15455;DHT22;21057;51.024;7.540;2023-03-11T05:22:37;1.50;99.90
15455;DHT22;21057;51.024;7.540;2023-03-11T05:25:06;1.50;99.90
15455;DHT22;21057;51.024;7.540;2023-03-11T05:27:34;1.30;99.90
15455;DHT22;21057;51.024;7.540;2023-03-11T05:30:04;1.30;99.90
15455;DHT22;21057;51.024;7.540;2023-03-11T05:32:48;1.20;99.90
15455;DHT22;21057;51.024;7.540;2023-03-11T05:35:15;1.40;99.90
15455;DHT22;21057;51.024;7.540;2023-03-11T05:37:41;1.50;99.90
15455;DHT22;21057;51.024;7.540;2023-03-11T05:40:10;1.40;99.90
15455;DHT22;21057;51.024;7.540;2023-03-11T05:42:47;1.50;99.90
15455;DHT22;21057;51.024;7.540;2023-03-11T05:45:15;1.30;99.90
15455;DHT22;21057;51.024;7.540;2023-03-11T05:47:42;1.30;99.90
15455;DHT22;21057;51.024;7.540;2023-03-11T05:50:16;1.40;99.90
15455;DHT22;21057;51.024;7.540;2023-03-11T05:52:43;1.40;99.90
15455;DHT22;21057;51.024;7.540;2023-03-11T05:55:10;1.40;99.90
15455;DHT22;21057;51.024;7.540;2023-03-11T05:57:44;1.40;99.90
15455;DHT22;21057;51.024;7.540;2023-03-11T06:00:13;1.20;99.90
15455;DHT22;21057;51.024;7.540;2023-03-11T06:02:41;1.10;99.90
15455;DHT22;21057;51.024;7.540;2023-03-11T06:05:09;1.10;99.90
15455;DHT22;21057;51.024;7.540;2023-03-11T06:07:36;1.20;99.90
15455;DHT22;21057;51.024;7.540;2023-03-11T06:10:17;1.20;99.90
15455;DHT22;21057;51.024;7.540;2023-03-11T06:12:53;1.20;99.90
15455;DHT22;21057;51.024;7.540;2023-03-11T06:15:21;1.20;99.90
15455;DHT22;21057;51.024;7.540;2023-03-11T06:17:48;1.30;99.90
15455;DHT22;21057;51.024;7.540;2023-03-11T06:20:19;1.30;99.90
15455;DHT22;21057;51.024;7.540;2023-03-11T06:22:47;1.30;99.90
15455;DHT22;21057;51.024;7.540;2023-03-11T06:25:14;1.40;99.90
15455;DHT22;21057;51.024;7.540;2023-03-11T06:27:48;1.20;99.90
15455;DHT22;21057;51.024;7.540;2023-03-11T06:30:16;1.20;99.90
15455;DHT22;21057;51.024;7.540;2023-03-11T06:32:44;1.50;99.90
15455;DHT22;21057;51.024;7.540;2023-03-11T06:35:14;1.50;99.90
15455;DHT22;21057;51.024;7.540;2023-03-11T06:37:40;1.50;99.90
15455;DHT22;21057;51.024;7.540;2023-03-11T06:40:08;1.50;99.90
15455;DHT22;21057;51.024;7.540;2023-03-11T06:42:36;1.50;99.90
15455;DHT22;21057;51.024;7.540;2023-03-11T06:45:03;1.50;99.90
15455;DHT22;21057;51.024;7.540;2023-03-11T06:47:30;1.40;99.90
15455;DHT22;21057;51.024;7.540;2023-03-11T06:50:16;1.40;99.90
15455;DHT22;21057;51.024;7.540;2023-03-11T06:52:43;1.60;99.90
15455;DHT22;21057;51.024;7.540;2023-03-11T06:55:10;1.60;99.90
15455;DHT22;21057;51.024;7.540;2023-03-11T06:57:37;1.80;99.90
15455;DHT22;21057;51.024;7.540;2023-03-11T07:00:05;1.70;99.90
15455;DHT22;21057;51.024;7.540;2023-03-11T07:02:35;1.70;99.90
15455;DHT22;21057;51.024;7.540;2023-03-11T07:05:02;1.60;99.90
15455;DHT22;21057;51.024;7.540;2023-03-11T07:07:38;1.80;99.90
15455;DHT22;21057;51.024;7.540;2023-03-11T07:10:06;1.90;99.90
15455;DHT22;21057;51.024;7.540;2023-03-11T07:12:33;1.80;99.90
15455;DHT22;21057;51.024;7.540;2023-03-11T07:15:01;1.90;99.90
15455;DHT22;21057;51.024;7.540;2023-03-11T07:17:28;2.20;99.90
15455;DHT22;21057;51.024;7.540;2023-03-11T07:19:54;2.40;99.90
15455;DHT22;21057;51.024;7.540;2023-03-11T07:22:21;2.30;99.90
15455;DHT22;21057;51.024;7.540;2023-03-11T07:24:51;2.40;99.90
15455;DHT22;21057;51.024;7.540;2023-03-11T07:27:18;2.30;99.90
15455;DHT22;21057;51.024;7.540;2023-03-11T07:29:48;2.30;99.90
15455;DHT22;21057;51.024;7.540;2023-03-11T07:32:15;2.10;99.90
15455;DHT22;21057;51.024;7.540;2023-03-11T07:34:42;1.90;99.90
15455;DHT22;21057;51.024;7.540;2023-03-11T07:37:10;1.90;99.90
15455;DHT22;21057;51.024;7.540;2023-03-11T07:39:36;2.00;99.90
15455;DHT22;21057;51.024;7.540;2023-03-11T07:42:06;2.00;99.90
15455;DHT22;21057;51.024;7.540;2023-03-11T07:44:39;1.80;99.90
15455;DHT22;21057;51.024;7.540;2023-03-11T07:47:06;1.90;99.90
15455;DHT22;21057;51.024;7.540;2023-03-11T07:49:33;2.00;99.90
15455;DHT22;21057;51.024;7.540;2023-03-11T07:52:05;1.90;99.90
15455;DHT22;21057;51.024;7.540;2023-03-11T07:54:32;1.90;99.90
15455;DHT22;21057;51.024;7.540;2023-03-11T07:56:59;1.90;99.90
15455;DHT22;21057;51.024;7.540;2023-03-11T07:59:29;2.00;99.90
15455;DHT22;21057;51.024;7.540;2023-03-11T08:01:56;1.90;99.90
15455;DHT22;21057;51.024;7.540;2023-03-11T08:04:24;2.00;99.90
15455;DHT22;21057;51.024;7.540;2023-03-11T08:06:50;2.10;99.90
15455;DHT22;21057;51.024;7.540;2023-03-11T08:09:17;2.20;99.90
15455;DHT22;21057;51.024;7.540;2023-03-11T08:11:44;2.20;99.90
15455;DHT22;21057;51.024;7.540;2023-03-11T08:14:14;2.40;99.90
15455;DHT22;21057;51.024;7.540;2023-03-11T08:16:47;2.60;99.90
15455;DHT22;21057;51.024;7.540;2023-03-11T08:19:14;2.80;99.90
15455;DHT22;21057;51.024;7.540;2023-03-11T08:21:47;2.90;99.90
15455;DHT22;21057;51.024;7.540;2023-03-11T08:24:14;2.80;99.90
15455;DHT22;21057;51.024;7.540;2023-03-11T08:26:41;2.80;99.90
15455;DHT22;21057;51.024;7.540;2023-03-11T08:29:15;2.60;99.90
15455;DHT22;21057;51.024;7.540;2023-03-11T08:31:45;2.50;99.90
15455;DHT22;21057;51.024;7.540;2023-03-11T08:34:14;2.60;99.90
15455;DHT22;21057;51.024;7.540;2023-03-11T08:36:48;2.40;99.90
15455;DHT22;21057;51.024;7.540;2023-03-11T08:39:17;2.40;99.90
15455;DHT22;21057;51.024;7.540;2023-03-11T08:41:45;2.70;99.90
15455;DHT22;21057;51.024;7.540;2023-03-11T08:44:12;2.60;99.90
15455;DHT22;21057;51.024;7.540;2023-03-11T08:46:41;2.50;99.90
15455;DHT22;21057;51.024;7.540;2023-03-11T08:49:09;2.70;99.90
15455;DHT22;21057;51.024;7.540;2023-03-11T08:51:53;2.70;99.90
15455;DHT22;21057;51.024;7.540;2023-03-11T08:54:31;2.50;99.90
15455;DHT22;21057;51.024;7.540;2023-03-11T08:56:59;2.40;99.90
15455;DHT22;21057;51.024;7.540;2023-03-11T08:59:28;2.60;99.90
15455;DHT22;21057;51.024;7.540;2023-03-11T09:01:57;2.70;99.90
15455;DHT22;21057;51.024;7.540;2023-03-11T09:04:31;2.70;99.90
15455;DHT22;21057;51.024;7.540;2023-03-11T09:07:08;2.60;99.90
15455;DHT22;21057;51.024;7.540;2023-03-11T09:09:43;2.60;99.90
15455;DHT22;21057;51.024;7.540;2023-03-11T09:12:11;2.80;99.90
15455;DHT22;21057;51.024;7.540;2023-03-11T09:14:43;2.60;99.90
15455;DHT22;21057;51.024;7.540;2023-03-11T09:17:12;2.60;99.90
15455;DHT22;21057;51.024;7.540;2023-03-11T09:19:59;2.70;99.90
15455;DHT22;21057;51.024;7.540;2023-03-11T09:22:26;2.70;99.90
15455;DHT22;21057;51.024;7.540;2023-03-11T09:25:02;2.80;99.90
15455;DHT22;21057;51.024;7.540;2023-03-11T09:27:41;3.10;99.90
15455;DHT22;21057;51.024;7.540;2023-03-11T09:30:16;3.30;99.90
15455;DHT22;21057;51.024;7.540;2023-03-11T09:32:43;3.50;99.90
15455;DHT22;21057;51.024;7.540;2023-03-11T09:35:13;3.60;99.90
15455;DHT22;21057;51.024;7.540;2023-03-11T09:37:52;3.90;99.90
15455;DHT22;21057;51.024;7.540;2023-03-11T09:40:28;4.00;99.90
15455;DHT22;21057;51.024;7.540;2023-03-11T09:43:05;4.00;99.90
15455;DHT22;21057;51.024;7.540;2023-03-11T09:45:43;4.20;99.90
15455;DHT22;21057;51.024;7.540;2023-03-11T09:48:22;4.20;99.90
15455;DHT22;21057;51.024;7.540;2023-03-11T09:51:04;4.60;99.90
15455;DHT22;21057;51.024;7.540;2023-03-11T09:53:42;4.80;99.90
15455;DHT22;21057;51.024;7.540;2023-03-11T09:56:12;5.20;99.90
15455;DHT22;21057;51.024;7.540;2023-03-11T09:58:42;5.60;99.90
15455;DHT22;21057;51.024;7.540;2023-03-11T10:01:18;6.30;99.90
15455;DHT22;21057;51.024;7.540;2023-03-11T10:03:55;6.40;99.90
15455;DHT22;21057;51.024;7.540;2023-03-11T10:06:28;6.30;99.90
15455;DHT22;21057;51.024;7.540;2023-03-11T10:09:20;6.30;99.90
15455;DHT22;21057;51.024;7.540;2023-03-11T10:12:01;6.50;99.90
15455;DHT22;21057;51.024;7.540;2023-03-11T10:14:57;6.60;99.90
15455;DHT22;21057;51.024;7.540;2023-03-11T10:17:39;6.40;99.90
15455;DHT22;21057;51.024;7.540;2023-03-11T10:20:17;7.00;99.90
15455;DHT22;21057;51.024;7.540;2023-03-11T10:22:57;8.10;98.80
15455;DHT22;21057;51.024;7.540;2023-03-11T10:25:27;9.20;97.40
15455;DHT22;21057;51.024;7.540;2023-03-11T10:28:00;9.70;94.80
15455;DHT22;21057;51.024;7.540;2023-03-11T10:30:42;9.50;94.90
15455;DHT22;21057;51.024;7.540;2023-03-11T10:33:19;9.60;94.60
15455;DHT22;21057;51.024;7.540;2023-03-11T10:36:04;9.00;91.10
15455;DHT22;21057;51.024;7.540;2023-03-11T10:38:43;8.40;93.90
15455;DHT22;21057;51.024;7.540;2023-03-11T10:41:31;7.90;93.90
15455;DHT22;21057;51.024;7.540;2023-03-11T10:44:05;7.60;94.90
15455;DHT22;21057;51.024;7.540;2023-03-11T10:46:32;8.30;96.40
15455;DHT22;21057;51.024;7.540;2023-03-11T10:48:59;9.10;91.70
15455;DHT22;21057;51.024;7.540;2023-03-11T10:51:31;10.50;92.30
15455;DHT22;21057;51.024;7.540;2023-03-11T10:54:02;10.80;88.40
15455;DHT22;21057;51.024;7.540;2023-03-11T10:56:31;11.00;87.80
15455;DHT22;21057;51.024;7.540;2023-03-11T10:58:59;10.00;79.70
15455;DHT22;21057;51.024;7.540;2023-03-11T11:01:27;8.50;90.20
15455;DHT22;21057;51.024;7.540;2023-03-11T11:04:01;7.60;91.10
15455;DHT22;21057;51.024;7.540;2023-03-11T11:06:30;7.10;94.20
15455;DHT22;21057;51.024;7.540;2023-03-11T11:09:10;6.90;99.40
15455;DHT22;21057;51.024;7.540;2023-03-11T11:12:11;7.90;96.50
15455;DHT22;21057;51.024;7.540;2023-03-11T11:14:46;8.30;83.90
15455;DHT22;21057;51.024;7.540;2023-03-11T11:17:18;8.30;90.60
15455;DHT22;21057;51.024;7.540;2023-03-11T11:19:48;9.20;91.40
15455;DHT22;21057;51.024;7.540;2023-03-11T11:22:16;9.00;88.40
15455;DHT22;21057;51.024;7.540;2023-03-11T11:24:46;8.20;91.80
15455;DHT22;21057;51.024;7.540;2023-03-11T11:27:17;7.80;91.10
15455;DHT22;21057;51.024;7.540;2023-03-11T11:29:45;7.10;93.00
15455;DHT22;21057;51.024;7.540;2023-03-11T11:32:18;7.20;96.00
15455;DHT22;21057;51.024;7.540;2023-03-11T11:34:59;7.30;94.10
15455;DHT22;21057;51.024;7.540;2023-03-11T11:37:41;7.50;93.70
15455;DHT22;21057;51.024;7.540;2023-03-11T11:40:24;7.70;92.80
15455;DHT22;21057;51.024;7.540;2023-03-11T11:43:11;8.10;94.60
15455;DHT22;21057;51.024;7.540;2023-03-11T11:45:45;8.30;92.80
15455;DHT22;21057;51.024;7.540;2023-03-11T11:48:19;8.30;96.40
15455;DHT22;21057;51.024;7.540;2023-03-11T11:50:59;8.20;95.60
15455;DHT22;21057;51.024;7.540;2023-03-11T11:53:37;7.90;94.50
15455;DHT22;21057;51.024;7.540;2023-03-11T11:56:08;7.60;91.60
15455;DHT22;21057;51.024;7.540;2023-03-11T11:58:42;7.50;96.20
15455;DHT22;21057;51.024;7.540;2023-03-11T12:01:25;7.30;94.90
15455;DHT22;21057;51.024;7.540;2023-03-11T12:04:10;7.00;93.90
15455;DHT22;21057;51.024;7.540;2023-03-11T12:07:12;6.90;97.70
15455;DHT22;21057;51.024;7.540;2023-03-11T12:09:48;6.80;96.20
15455;DHT22;21057;51.024;7.540;2023-03-11T12:12:24;6.60;95.70
15455;DHT22;21057;51.024;7.540;2023-03-11T12:15:05;5.70;97.50
15455;DHT22;21057;51.024;7.540;2023-03-11T12:17:37;5.80;97.40
15455;DHT22;21057;51.024;7.540;2023-03-11T12:20:26;5.90;98.40
15455;DHT22;21057;51.024;7.540;2023-03-11T12:23:13;6.20;93.80
15455;DHT22;21057;51.024;7.540;2023-03-11T12:28:35;6.20;94.80
15455;DHT22;21057;51.024;7.540;2023-03-11T12:31:06;5.80;93.70
15455;DHT22;21057;51.024;7.540;2023-03-11T12:33:37;6.20;99.90
15455;DHT22;21057;51.024;7.540;2023-03-11T12:36:06;6.80;99.10
15455;DHT22;21057;51.024;7.540;2023-03-11T12:38:36;7.10;95.60
15455;DHT22;21057;51.024;7.540;2023-03-11T12:41:06;6.80;95.10
15455;DHT22;21057;51.024;7.540;2023-03-11T12:44:03;6.40;96.30
15455;DHT22;21057;51.024;7.540;2023-03-11T12:46:59;6.20;96.80
15455;DHT22;21057;51.024;7.540;2023-03-11T12:49:26;6.60;97.40
15455;DHT22;21057;51.024;7.540;2023-03-11T12:52:20;6.70;97.10
15455;DHT22;21057;51.024;7.540;2023-03-11T12:54:48;6.50;94.20
15455;DHT22;21057;51.024;7.540;2023-03-11T12:57:40;6.20;95.10
15455;DHT22;21057;51.024;7.540;2023-03-11T13:00:21;6.00;97.50
15455;DHT22;21057;51.024;7.540;2023-03-11T13:05:53;5.90;95.30
15455;DHT22;21057;51.024;7.540;2023-03-11T13:08:24;6.00;98.70
15455;DHT22;21057;51.024;7.540;2023-03-11T13:11:00;6.00;93.70
15455;DHT22;21057;51.024;7.540;2023-03-11T13:13:49;6.20;94.10
15455;DHT22;21057;51.024;7.540;2023-03-11T13:16:35;6.30;94.50
15455;DHT22;21057;51.024;7.540;2023-03-11T13:19:35;6.50;96.80
15455;DHT22;21057;51.024;7.540;2023-03-11T13:22:41;6.80;97.60
15455;DHT22;21057;51.024;7.540;2023-03-11T13:25:27;6.90;94.50
15455;DHT22;21057;51.024;7.540;2023-03-11T13:27:57;6.70;93.10
15455;DHT22;21057;51.024;7.540;2023-03-11T13:30:33;6.80;97.20
15455;DHT22;21057;51.024;7.540;2023-03-11T13:33:24;7.00;93.80
15455;DHT22;21057;51.024;7.540;2023-03-11T13:36:06;7.30;95.20
15455;DHT22;21057;51.024;7.540;2023-03-11T13:41:40;8.10;94.20
15455;DHT22;21057;51.024;7.540;2023-03-11T13:44:21;8.10;93.30
15455;DHT22;21057;51.024;7.540;2023-03-11T13:46:53;7.70;93.00
15455;DHT22;21057;51.024;7.540;2023-03-11T13:49:35;7.90;96.80
15455;DHT22;21057;51.024;7.540;2023-03-11T13:52:08;7.20;93.40
15455;DHT22;21057;51.024;7.540;2023-03-11T13:54:42;7.20;95.90
15455;DHT22;21057;51.024;7.540;2023-03-11T13:57:23;7.70;93.90
15455;DHT22;21057;51.024;7.540;2023-03-11T13:59:52;8.80;96.40
15455;DHT22;21057;51.024;7.540;2023-03-11T14:02:23;9.60;91.90
15455;DHT22;21057;51.024;7.540;2023-03-11T14:04:54;10.40;87.60
15455;DHT22;21057;51.024;7.540;2023-03-11T14:07:26;9.90;83.80
15455;DHT22;21057;51.024;7.540;2023-03-11T14:10:25;9.20;84.30
15455;DHT22;21057;51.024;7.540;2023-03-11T14:13:05;8.40;88.80
15455;DHT22;21057;51.024;7.540;2023-03-11T14:15:41;7.30;91.00
15455;DHT22;21057;51.024;7.540;2023-03-11T14:18:34;6.50;91.70
15455;DHT22;21057;51.024;7.540;2023-03-11T14:21:03;6.50;94.20
15455;DHT22;21057;51.024;7.540;2023-03-11T14:23:43;6.20;92.40
15455;DHT22;21057;51.024;7.540;2023-03-11T14:26:13;6.20;94.30
15455;DHT22;21057;51.024;7.540;2023-03-11T14:28:43;6.50;93.70
15455;DHT22;21057;51.024;7.540;2023-03-11T14:31:37;6.90;94.20
15455;DHT22;21057;51.024;7.540;2023-03-11T14:34:13;6.90;93.00
15455;DHT22;21057;51.024;7.540;2023-03-11T14:36:42;6.90;97.00
15455;DHT22;21057;51.024;7.540;2023-03-11T14:39:30;6.80;93.70
15455;DHT22;21057;51.024;7.540;2023-03-11T14:42:02;6.80;93.20
15455;DHT22;21057;51.024;7.540;2023-03-11T14:44:32;6.70;97.10
15455;DHT22;21057;51.024;7.540;2023-03-11T14:47:06;6.50;99.90
15455;DHT22;21057;51.024;7.540;2023-03-11T14:49:36;6.40;99.90
15455;DHT22;21057;51.024;7.540;2023-03-11T14:52:07;6.50;99.90
15455;DHT22;21057;51.024;7.540;2023-03-11T14:54:43;6.50;99.90
15455;DHT22;21057;51.024;7.540;2023-03-11T14:57:18;6.60;99.90
15455;DHT22;21057;51.024;7.540;2023-03-11T14:59:49;6.40;96.60
15455;DHT22;21057;51.024;7.540;2023-03-11T15:02:30;6.40;99.90
15455;DHT22;21057;51.024;7.540;2023-03-11T15:05:02;6.20;98.80
15455;DHT22;21057;51.024;7.540;2023-03-11T15:07:35;6.10;98.80
15455;DHT22;21057;51.024;7.540;2023-03-11T15:10:07;6.10;97.00
15455;DHT22;21057;51.024;7.540;2023-03-11T15:12:41;6.10;99.90
15455;DHT22;21057;51.024;7.540;2023-03-11T15:15:27;6.10;97.30
15455;DHT22;21057;51.024;7.540;2023-03-11T15:17:57;6.20;97.50
15455;DHT22;21057;51.024;7.540;2023-03-11T15:20:28;6.20;99.90
15455;DHT22;21057;51.024;7.540;2023-03-11T15:22:57;6.10;98.90
15455;DHT22;21057;51.024;7.540;2023-03-11T15:25:35;6.20;99.30
15455;DHT22;21057;51.024;7.540;2023-03-11T15:28:20;6.10;97.90
15455;DHT22;21057;51.024;7.540;2023-03-11T15:30:48;6.10;97.80
15455;DHT22;21057;51.024;7.540;2023-03-11T15:33:31;5.90;97.20
15455;DHT22;21057;51.024;7.540;2023-03-11T15:36:28;5.90;99.90
15455;DHT22;21057;51.024;7.540;2023-03-11T15:39:16;5.80;96.90
15455;DHT22;21057;51.024;7.540;2023-03-11T15:41:45;5.80;99.90
15455;DHT22;21057;51.024;7.540;2023-03-11T15:44:22;5.60;99.90
15455;DHT22;21057;51.024;7.540;2023-03-11T15:46:50;5.50;99.90
15455;DHT22;21057;51.024;7.540;2023-03-11T15:49:17;5.40;99.90
15455;DHT22;21057;51.024;7.540;2023-03-11T15:51:45;5.30;99.60
15455;DHT22;21057;51.024;7.540;2023-03-11T15:54:13;5.30;99.90
15455;DHT22;21057;51.024;7.540;2023-03-11T15:56:40;5.20;99.90
15455;DHT22;21057;51.024;7.540;2023-03-11T15:59:11;5.30;99.90
15455;DHT22;21057;51.024;7.540;2023-03-11T16:01:39;5.30;99.90
15455;DHT22;21057;51.024;7.540;2023-03-11T16:04:11;5.30;99.90
15455;DHT22;21057;51.024;7.540;2023-03-11T16:06:38;5.40;99.90
15455;DHT22;21057;51.024;7.540;2023-03-11T16:09:09;5.40;99.90
15455;DHT22;21057;51.024;7.540;2023-03-11T16:11:37;5.50;99.90
15455;DHT22;21057;51.024;7.540;2023-03-11T16:14:04;5.40;99.90
15455;DHT22;21057;51.024;7.540;2023-03-11T16:16:31;5.40;99.50
15455;DHT22;21057;51.024;7.540;2023-03-11T16:18:58;5.50;99.90
15455;DHT22;21057;51.024;7.540;2023-03-11T16:21:33;5.50;99.90
15455;DHT22;21057;51.024;7.540;2023-03-11T16:24:01;5.60;99.90
15455;DHT22;21057;51.024;7.540;2023-03-11T16:26:29;5.50;98.50